hwlogo.jpg (8581 bytes)
Home Your Weather Products Services Weather On Your Site Contact
HW Version Logo
Weather Info
Your Weather (Options)
Canadian Weather
International Weather
Enter your " Place, State", US Zip Code or ICAO:  
Forecast Information Radar Information
Sydney, Nova Scotia, Canada  Lat: 46.17N, Lon: 60.03W
ICAO Used: CYQY
Current Conditions
Updated: 11:00 AM AST TUE FEB 20 2018
Sun & Moon Information
Overcast
Overcast
Temp: 4°C
Humidity: 93%
Wind Speed: NW 3 MPH
Barometer: 1025 mb
Dewpoint: 3°C
Heat Index: 4°C
Wind Chill: 3°C
Civil Twilight: 6:25 AM AST Moon Phase:
Waxing Crescent Moon
Sunrise: 6:55 AM AST
Sunset: 5:31 PM AST
Civil Twilight: 6:02 PM AST
Forecast for Sydney, NS:
(Forecast based on TAF for )
0800 PM AST TUE FEB 20 2018
  
AFTERNOON EVENING OVERNIGHT
Mostly
Cloudy
Mostly
Cloudy
Mostly
Cloudy
ZoneCast:
Dated: 0800 PM AST TUE FEB 20 2018
Afternoon...Turning mostly cloudy with winds from the northeast at 14 mph.

Evening...Mostly cloudy with winds from the northeast at 14 mph.

Overnight...Mostly cloudy with winds from the northeast at 14 mph.

Original Encoded TAF:
Dated: 0800 PM AST TUE FEB 20 2018
2018/02/20 15:09
TAF 
      AMD CYQY 201506Z 2015/2024 VRB03KT P6SM OVC070 
      TEMPO 2015/2018 5SM -RA BR OVC008 
     FM201800 03012KT P6SM BKN020 
      RMK NXT FCST BY 201800Z